createdAt,value
2022-12-24T00:01:38.972Z,81.68
2022-12-24T00:04:06.249Z,101.88
2022-12-24T00:06:33.271Z,85.20
2022-12-24T00:09:00.283Z,92.40
2022-12-24T00:11:27.201Z,87.30
2022-12-24T00:13:54.111Z,81.82
2022-12-24T00:16:20.973Z,92.90
2022-12-24T00:18:47.938Z,84.20
2022-12-24T00:21:16.268Z,80.28
2022-12-24T00:23:43.780Z,85.25
2022-12-24T00:26:11.454Z,88.18
2022-12-24T00:28:38.484Z,83.47
2022-12-24T00:31:13.829Z,83.88
2022-12-24T00:33:41.971Z,81.82
2022-12-24T00:36:09.673Z,85.28
2022-12-24T00:38:37.366Z,88.93
2022-12-24T00:41:06.529Z,79.97
2022-12-24T00:43:33.528Z,80.90
2022-12-24T00:46:00.527Z,85.13
2022-12-24T00:48:27.496Z,88.32
2022-12-24T00:50:54.714Z,95.32
2022-12-24T00:53:21.830Z,89.45
2022-12-24T00:55:48.797Z,81.22
2022-12-24T00:58:15.694Z,89.68
2022-12-24T01:00:42.768Z,86.35
2022-12-24T01:03:09.814Z,82.70
2022-12-24T01:05:36.827Z,86.15
2022-12-24T01:08:03.763Z,86.25
2022-12-24T01:10:30.845Z,88.05
2022-12-24T01:12:57.750Z,92.18
2022-12-24T01:15:24.981Z,81.30
2022-12-24T01:17:52.069Z,84.88
2022-12-24T01:20:19.234Z,85.93
2022-12-24T01:22:46.383Z,94.68
2022-12-24T01:25:13.355Z,103.85
2022-12-24T01:27:40.341Z,117.45
2022-12-24T01:30:09.636Z,116.05
2022-12-24T01:32:36.722Z,103.20
2022-12-24T01:35:04.104Z,124.78
2022-12-24T01:37:31.003Z,132.90
2022-12-24T01:40:17.942Z,144.77
2022-12-24T01:43:06.825Z,147.55
2022-12-24T01:45:48.775Z,150.00
2022-12-24T01:48:23.324Z,149.48
2022-12-24T01:50:56.120Z,142.32
2022-12-24T01:53:23.948Z,124.97
2022-12-24T01:55:51.509Z,146.45
2022-12-24T01:58:21.221Z,121.65
2022-12-24T02:00:48.514Z,131.90
2022-12-24T02:03:15.736Z,134.77
2022-12-24T02:05:48.600Z,126.35
2022-12-24T02:08:16.926Z,124.43
2022-12-24T02:10:44.954Z,126.65
2022-12-24T02:13:12.798Z,115.93
2022-12-24T02:15:45.621Z,130.55
2022-12-24T02:18:26.671Z,129.82
2022-12-24T02:21:31.369Z,136.00
2022-12-24T02:23:58.306Z,144.68
2022-12-24T02:26:25.143Z,128.13
2022-12-24T02:29:31.202Z,150.55
2022-12-24T02:32:24.608Z,147.32
2022-12-24T02:35:16.079Z,135.90
2022-12-24T02:38:18.119Z,134.70
2022-12-24T02:40:57.362Z,138.35
2022-12-24T02:43:29.401Z,139.27
2022-12-24T02:46:01.415Z,124.50
2022-12-24T02:48:30.733Z,122.38
2022-12-24T02:51:02.878Z,121.55
2022-12-24T02:53:30.714Z,119.43
2022-12-24T02:56:31.068Z,110.53
2022-12-24T02:59:07.192Z,105.70
2022-12-24T03:01:53.093Z,108.70
2022-12-24T03:04:39.844Z,111.20
2022-12-24T03:07:23.879Z,99.97
2022-12-24T03:26:53.262Z,145.43
2022-12-24T03:29:20.550Z,136.35
2022-12-24T03:31:51.174Z,145.55
2022-12-24T03:34:19.311Z,142.05
2022-12-24T03:36:48.615Z,149.85
2022-12-24T03:39:15.728Z,158.52
2022-12-24T03:41:42.714Z,154.65
2022-12-24T03:44:09.856Z,149.52
2022-12-24T03:46:36.909Z,144.60
2022-12-24T03:49:03.784Z,141.20
2022-12-24T03:51:30.831Z,131.63
2022-12-24T03:53:58.416Z,131.30
2022-12-24T03:56:26.385Z,138.88
2022-12-24T03:58:53.812Z,142.45
2022-12-24T04:01:20.979Z,124.00
2022-12-24T04:03:48.064Z,134.93
2022-12-24T04:06:18.092Z,143.23
2022-12-24T04:08:45.359Z,135.85
2022-12-24T04:11:37.925Z,137.60
2022-12-24T04:14:04.859Z,125.65
2022-12-24T04:16:31.919Z,133.57
2022-12-24T04:19:07.457Z,135.35
2022-12-24T04:21:34.267Z,124.53
2022-12-24T04:24:01.359Z,138.32
2022-12-24T04:26:28.370Z,154.98
2022-12-24T04:28:55.367Z,149.35
2022-12-24T04:31:22.513Z,136.38
2022-12-24T04:33:52.015Z,134.27
2022-12-24T04:36:20.290Z,118.28
2022-12-24T04:38:48.931Z,124.28
2022-12-24T04:41:24.299Z,120.07
2022-12-24T04:43:53.843Z,126.10
2022-12-24T04:46:26.724Z,120.60
2022-12-24T04:48:54.644Z,151.43
2022-12-24T04:51:22.064Z,118.97
2022-12-24T04:53:49.098Z,123.07
2022-12-24T04:56:27.745Z,123.10
2022-12-24T04:58:55.678Z,119.63
2022-12-24T05:01:25.406Z,120.13
2022-12-24T05:03:52.930Z,123.78
2022-12-24T05:06:22.748Z,109.45
2022-12-24T05:08:50.111Z,119.13
2022-12-24T05:11:17.386Z,117.57
2022-12-24T05:13:47.518Z,126.20
2022-12-24T05:16:17.145Z,124.50
2022-12-24T05:18:44.264Z,131.90
2022-12-24T05:21:17.026Z,136.07
2022-12-24T05:24:02.554Z,123.65
2022-12-24T05:26:42.887Z,127.25
2022-12-24T05:29:12.426Z,123.25
2022-12-24T05:31:40.463Z,131.32
2022-12-24T05:34:08.476Z,122.43
2022-12-24T05:36:35.628Z,135.52
2022-12-24T05:39:02.807Z,137.52
2022-12-24T05:41:29.810Z,141.60
2022-12-24T05:43:56.822Z,144.15
2022-12-24T05:46:24.611Z,174.73
2022-12-24T05:48:52.863Z,188.35
2022-12-24T05:51:22.535Z,164.10
2022-12-24T05:53:51.166Z,145.52
2022-12-24T05:56:21.936Z,210.60
2022-12-24T05:58:50.071Z,137.55
2022-12-24T06:01:17.357Z,95.60
2022-12-24T06:03:44.421Z,85.22
2022-12-24T06:06:14.645Z,77.68
2022-12-24T06:08:42.528Z,66.35
2022-12-24T06:11:14.070Z,91.28
2022-12-24T06:13:41.942Z,72.97
2022-12-24T06:16:12.580Z,54.40
2022-12-24T06:18:39.714Z,50.47
2022-12-24T06:21:07.318Z,43.38
2022-12-24T06:23:36.704Z,45.42
2022-12-24T06:26:05.088Z,39.92
2022-12-24T06:28:34.194Z,42.13
2022-12-24T06:31:03.123Z,36.65
2022-12-24T06:33:31.904Z,34.92
2022-12-24T06:35:59.616Z,31.73
2022-12-24T06:38:26.879Z,31.65
2022-12-24T06:40:56.019Z,31.67
2022-12-24T06:43:23.885Z,30.08
2022-12-24T06:45:50.899Z,31.27
2022-12-24T06:48:18.064Z,32.80
2022-12-24T06:50:45.141Z,27.55
2022-12-24T06:53:12.558Z,31.30
2022-12-24T06:55:39.682Z,28.10
2022-12-24T06:58:06.553Z,25.55
2022-12-24T07:00:33.594Z,27.45
2022-12-24T07:03:00.881Z,26.08
2022-12-24T07:05:28.554Z,34.83
2022-12-24T07:07:55.693Z,31.13
2022-12-24T07:10:23.013Z,48.33
2022-12-24T07:12:49.955Z,38.40
2022-12-24T07:15:17.546Z,36.13
2022-12-24T07:17:44.488Z,40.17
2022-12-24T07:20:15.006Z,46.22
2022-12-24T07:22:42.822Z,46.42
2022-12-24T07:25:10.757Z,41.55
2022-12-24T07:27:38.761Z,48.25
2022-12-24T07:30:06.524Z,40.15
2022-12-24T07:32:33.546Z,34.95
2022-12-24T07:35:00.525Z,38.03
2022-12-24T07:37:27.501Z,34.15
2022-12-24T07:39:54.555Z,53.67
2022-12-24T07:42:21.959Z,47.88
2022-12-24T07:44:49.544Z,43.53
2022-12-24T07:47:16.495Z,37.45
2022-12-24T07:49:43.573Z,37.63
2022-12-24T07:52:10.600Z,39.92
2022-12-24T07:54:37.463Z,46.50
2022-12-24T07:57:04.617Z,40.30
2022-12-24T07:59:31.702Z,44.47
2022-12-24T08:01:58.877Z,38.00
2022-12-24T08:04:25.924Z,36.58
2022-12-24T08:06:53.005Z,39.70
2022-12-24T08:09:20.083Z,33.72
2022-12-24T08:11:52.039Z,36.88
2022-12-24T08:14:19.653Z,28.90
2022-12-24T08:16:46.729Z,29.95
2022-12-24T08:19:13.841Z,31.38
2022-12-24T08:21:40.871Z,26.35
2022-12-24T08:24:07.810Z,27.95
2022-12-24T08:26:34.904Z,28.83
2022-12-24T08:29:02.897Z,25.15
2022-12-24T08:31:30.517Z,23.67
2022-12-24T08:33:57.591Z,29.65
2022-12-24T08:36:24.511Z,26.83
2022-12-24T08:38:51.549Z,24.00
2022-12-24T08:41:18.429Z,25.45
2022-12-24T08:43:45.441Z,28.17
2022-12-24T08:46:12.414Z,23.52
2022-12-24T08:48:39.745Z,28.20
2022-12-24T08:51:11.606Z,28.38
2022-12-24T08:53:39.574Z,28.73
2022-12-24T08:56:08.914Z,34.08
2022-12-24T08:58:36.329Z,25.85
2022-12-24T09:01:14.561Z,30.02
2022-12-24T09:03:42.359Z,29.27
2022-12-24T09:06:09.962Z,31.17
2022-12-24T09:08:37.070Z,28.13
2022-12-24T09:11:16.085Z,26.67
2022-12-24T09:13:44.837Z,28.35
2022-12-24T09:16:12.309Z,28.70
2022-12-24T09:18:40.098Z,24.95
2022-12-24T09:21:18.820Z,28.20
2022-12-24T09:23:48.062Z,20.50
2022-12-24T09:26:21.096Z,21.70
2022-12-24T09:28:48.688Z,23.40
2022-12-24T09:31:16.697Z,24.45
2022-12-24T09:33:45.065Z,22.70
2022-12-24T09:36:12.347Z,27.60
2022-12-24T09:38:42.544Z,22.98
2022-12-24T09:41:55.117Z,23.55
2022-12-24T09:44:37.092Z,22.60
2022-12-24T09:47:13.324Z,26.75
2022-12-24T09:49:46.653Z,18.70
2022-12-24T09:52:29.323Z,22.67
2022-12-24T09:55:07.231Z,17.70
2022-12-24T09:57:39.027Z,19.10
2022-12-24T10:00:18.122Z,16.88
2022-12-24T10:02:45.553Z,15.93
2022-12-24T10:05:17.814Z,18.38
2022-12-24T10:08:33.037Z,17.08
2022-12-24T10:11:20.400Z,22.65
2022-12-24T10:14:05.711Z,20.55
2022-12-24T10:16:42.070Z,20.77
2022-12-24T10:19:27.085Z,22.30
2022-12-24T10:21:56.899Z,21.75
2022-12-24T10:24:28.856Z,23.25
2022-12-24T10:27:02.982Z,24.08
2022-12-24T10:29:42.095Z,23.40
2022-12-24T10:32:09.066Z,21.85
2022-12-24T10:34:44.498Z,19.38
2022-12-24T10:37:17.774Z,20.70
2022-12-24T10:39:44.913Z,20.88
2022-12-24T10:42:14.950Z,15.45
2022-12-24T10:44:42.470Z,15.52
2022-12-24T10:47:10.815Z,14.90
2022-12-24T10:49:46.020Z,18.77
2022-12-24T10:52:16.057Z,14.23
2022-12-24T10:55:09.385Z,15.20
2022-12-24T10:57:36.775Z,13.88
2022-12-24T11:00:06.512Z,14.35
2022-12-24T11:02:33.574Z,15.02
2022-12-24T11:05:03.570Z,15.15
2022-12-24T11:07:32.523Z,17.23
2022-12-24T11:10:02.160Z,19.95
2022-12-24T11:13:00.212Z,15.75
2022-12-24T11:15:35.281Z,20.75
2022-12-24T11:18:13.916Z,25.40
2022-12-24T11:20:41.858Z,24.75
2022-12-24T11:23:16.586Z,19.88
2022-12-24T11:25:49.372Z,16.40
2022-12-24T11:28:27.834Z,15.57
2022-12-24T11:31:02.000Z,13.85
2022-12-24T11:33:30.977Z,19.20
2022-12-24T11:36:06.856Z,14.15
2022-12-24T11:38:35.472Z,14.93
2022-12-24T11:41:10.707Z,13.70
2022-12-24T11:43:44.669Z,16.05
2022-12-24T11:46:15.336Z,13.25
2022-12-24T11:48:42.467Z,21.20
2022-12-24T11:51:22.466Z,13.10
2022-12-24T11:53:49.372Z,13.90
2022-12-24T11:56:30.091Z,16.65
2022-12-24T11:59:02.457Z,14.30
2022-12-24T12:01:45.924Z,16.48
2022-12-24T12:04:19.227Z,12.90
2022-12-24T12:06:51.039Z,21.25
2022-12-24T12:09:22.847Z,27.02
2022-12-24T12:12:01.136Z,15.88
2022-12-24T12:14:33.651Z,19.23
2022-12-24T12:17:25.789Z,16.77
2022-12-24T12:20:09.743Z,18.33
2022-12-24T12:22:47.086Z,17.55
2022-12-24T12:25:26.664Z,14.48
2022-12-24T12:27:56.987Z,25.48
2022-12-24T12:30:24.796Z,15.20
2022-12-24T12:32:59.511Z,18.48
2022-12-24T12:35:32.017Z,10.77
2022-12-24T12:38:06.089Z,7.70
2022-12-24T12:40:45.574Z,9.35
2022-12-24T12:43:34.372Z,9.18
2022-12-24T12:46:04.365Z,8.90
2022-12-24T12:49:00.340Z,17.75
2022-12-24T12:51:51.835Z,6.57
2022-12-24T12:54:55.529Z,10.95
2022-12-24T12:57:26.725Z,7.05
2022-12-24T13:00:00.179Z,8.13
2022-12-24T13:02:49.027Z,15.13
2022-12-24T13:05:32.978Z,7.38
2022-12-24T13:08:37.486Z,8.60
2022-12-24T13:11:10.292Z,8.20
2022-12-24T13:14:14.547Z,11.70
2022-12-24T13:17:13.446Z,10.50
2022-12-24T13:19:43.369Z,9.25
2022-12-24T13:22:18.780Z,10.30
2022-12-24T13:24:55.486Z,10.40
2022-12-24T13:27:25.391Z,13.02
2022-12-24T13:30:21.217Z,11.13
2022-12-24T13:32:53.369Z,15.55
2022-12-24T13:35:20.190Z,10.95
2022-12-24T13:37:48.533Z,11.30
2022-12-24T13:40:26.621Z,12.18
2022-12-24T13:42:59.692Z,11.80
2022-12-24T13:45:29.922Z,14.25
2022-12-24T13:48:06.072Z,11.10
2022-12-24T13:50:36.193Z,15.77
2022-12-24T13:53:05.520Z,16.50
2022-12-24T13:55:33.641Z,12.48
2022-12-24T13:58:04.545Z,16.50
2022-12-24T14:00:42.758Z,16.08
2022-12-24T14:03:15.707Z,17.08
2022-12-24T14:05:42.501Z,22.17
2022-12-24T14:08:28.498Z,20.73
2022-12-24T14:11:02.829Z,13.52
2022-12-24T14:13:38.895Z,15.40
2022-12-24T14:16:14.968Z,17.83
2022-12-24T14:18:46.249Z,22.10
2022-12-24T14:21:21.854Z,23.75
2022-12-24T14:24:26.412Z,16.48
2022-12-24T14:27:07.652Z,19.88
2022-12-24T14:29:41.656Z,18.95
2022-12-24T14:32:15.849Z,17.27
2022-12-24T14:37:13.032Z,22.85
2022-12-24T14:39:44.898Z,18.63
2022-12-24T14:42:33.372Z,21.63
2022-12-24T14:45:07.587Z,17.48
2022-12-24T14:50:57.161Z,19.98
2022-12-24T14:53:39.616Z,16.08
2022-12-24T14:56:14.663Z,12.75
2022-12-24T14:58:43.619Z,13.02
2022-12-24T15:01:27.200Z,11.73
2022-12-24T15:04:09.507Z,18.00
2022-12-24T15:06:39.976Z,12.75
2022-12-24T15:09:17.567Z,15.90
2022-12-24T15:11:46.765Z,12.85
2022-12-24T15:14:14.229Z,20.35
2022-12-24T15:29:03.608Z,40.97
2022-12-24T15:31:31.914Z,26.95
2022-12-24T15:34:01.920Z,22.77
2022-12-24T15:36:35.063Z,28.75
2022-12-24T15:39:07.019Z,24.55
2022-12-24T15:42:10.612Z,24.70
2022-12-24T15:44:39.408Z,21.90
2022-12-24T15:47:21.957Z,25.17
2022-12-24T15:49:52.378Z,15.75
2022-12-24T15:52:24.735Z,19.98
2022-12-24T15:54:57.435Z,18.17
2022-12-24T15:57:31.787Z,19.02
2022-12-24T16:00:01.221Z,23.13
2022-12-24T16:02:45.500Z,12.20
2022-12-24T16:05:30.469Z,12.20
2022-12-24T16:08:22.251Z,17.85
2022-12-24T16:10:50.801Z,20.10
2022-12-24T16:13:25.047Z,10.18
2022-12-24T16:18:54.476Z,11.30
2022-12-24T16:21:26.168Z,9.15
2022-12-24T16:23:56.025Z,17.05
2022-12-24T16:26:23.329Z,18.33
2022-12-24T16:28:51.037Z,14.38
2022-12-24T16:31:20.382Z,13.20
2022-12-24T16:33:47.595Z,11.30
2022-12-24T16:36:14.695Z,16.27
2022-12-24T16:39:00.398Z,8.20
2022-12-24T16:41:27.347Z,13.75
2022-12-24T16:43:54.236Z,9.77
2022-12-24T16:46:21.283Z,16.33
2022-12-24T16:48:49.160Z,10.05
2022-12-24T16:51:16.139Z,14.55
2022-12-24T16:53:43.254Z,9.50
2022-12-24T16:56:10.154Z,11.02
2022-12-24T16:58:37.187Z,8.70
2022-12-24T17:01:09.211Z,8.32
2022-12-24T17:03:36.720Z,9.95
2022-12-24T17:06:07.671Z,7.72
2022-12-24T17:08:34.948Z,9.77
2022-12-24T17:11:01.852Z,9.55
2022-12-24T17:13:31.538Z,10.80
2022-12-24T17:16:00.745Z,6.38
2022-12-24T17:18:27.801Z,7.30
2022-12-24T17:21:04.123Z,8.23
2022-12-24T17:23:31.039Z,8.85
2022-12-24T17:25:58.790Z,7.78
2022-12-24T17:28:26.141Z,8.93
2022-12-24T17:30:53.299Z,12.02
2022-12-24T17:33:20.330Z,7.65
2022-12-24T17:35:49.262Z,8.98
2022-12-24T17:38:16.281Z,10.05
2022-12-24T17:40:43.151Z,10.45
2022-12-24T17:43:11.027Z,11.95
2022-12-24T17:45:42.470Z,9.63
2022-12-24T17:48:09.825Z,9.15
2022-12-24T17:50:40.164Z,10.52
2022-12-24T17:53:07.920Z,12.40
2022-12-24T17:55:39.081Z,10.55
2022-12-24T17:58:08.026Z,10.00
2022-12-24T18:00:35.600Z,11.95
2022-12-24T18:03:02.736Z,9.95
2022-12-24T18:05:29.922Z,12.30
2022-12-24T18:07:59.843Z,11.23
2022-12-24T18:10:26.747Z,12.95
2022-12-24T18:12:53.903Z,13.35
2022-12-24T18:15:22.483Z,11.15
2022-12-24T18:17:56.398Z,10.98
2022-12-24T18:20:23.407Z,14.85
2022-12-24T18:22:50.321Z,11.48
2022-12-24T18:25:17.515Z,10.35
2022-12-24T18:27:44.423Z,8.57
2022-12-24T18:30:11.734Z,10.80
2022-12-24T18:32:38.763Z,9.85
2022-12-24T18:35:06.685Z,9.95
2022-12-24T18:37:34.097Z,9.07
2022-12-24T18:40:01.107Z,8.48
2022-12-24T18:42:28.540Z,10.02
2022-12-24T18:44:55.594Z,15.43
2022-12-24T18:47:22.648Z,15.98
2022-12-24T18:49:49.714Z,19.80
2022-12-24T18:52:22.407Z,14.48
2022-12-24T18:54:50.752Z,15.80
2022-12-24T18:57:17.618Z,12.02
2022-12-24T18:59:44.534Z,13.20
2022-12-24T19:02:11.495Z,8.57
2022-12-24T19:04:38.685Z,10.43
2022-12-24T19:07:08.038Z,12.60
2022-12-24T19:09:34.909Z,12.07
2022-12-24T19:12:01.810Z,10.05
2022-12-24T19:14:28.747Z,10.00
2022-12-24T19:16:55.885Z,8.50
2022-12-24T19:19:24.224Z,7.15
2022-12-24T19:21:51.799Z,9.25
2022-12-24T19:24:18.738Z,7.63
2022-12-24T19:26:45.722Z,8.50
2022-12-24T19:29:12.829Z,9.23
2022-12-24T19:31:39.826Z,7.00
2022-12-24T19:34:06.824Z,9.35
2022-12-24T19:36:34.857Z,8.10
2022-12-24T19:39:01.965Z,12.30
2022-12-24T19:41:30.356Z,9.82
2022-12-24T19:43:59.970Z,11.90
2022-12-24T19:46:30.276Z,10.57
2022-12-24T19:49:00.197Z,9.82
2022-12-24T19:51:29.252Z,10.05
2022-12-24T19:53:57.655Z,11.40
2022-12-24T19:56:27.583Z,10.13
2022-12-24T19:58:58.763Z,12.10
2022-12-24T20:01:28.540Z,12.25
2022-12-24T20:03:56.638Z,11.23
2022-12-24T20:06:26.347Z,12.73
2022-12-24T20:09:01.580Z,11.65
2022-12-24T20:13:59.113Z,10.15
2022-12-24T20:16:26.835Z,10.15
2022-12-24T20:18:55.609Z,12.63
2022-12-24T20:21:23.453Z,10.88
2022-12-24T20:23:51.286Z,9.65
2022-12-24T20:26:21.210Z,9.60
2022-12-24T20:28:48.708Z,10.00
2022-12-24T20:31:25.245Z,9.38
2022-12-24T20:33:52.834Z,10.85
2022-12-24T20:36:22.545Z,9.88
2022-12-24T20:38:50.257Z,10.30
2022-12-24T20:41:19.670Z,13.95
2022-12-24T20:43:48.858Z,10.48
2022-12-24T20:46:20.913Z,12.00
2022-12-24T20:48:48.343Z,10.48
2022-12-24T20:51:24.439Z,12.63
2022-12-24T20:53:57.222Z,12.38
2022-12-24T20:56:25.066Z,12.63
2022-12-24T20:58:52.727Z,9.77
2022-12-24T21:01:25.360Z,11.50
2022-12-24T21:04:04.996Z,12.55
2022-12-24T21:06:33.940Z,11.52
2022-12-24T21:09:01.727Z,11.15
2022-12-24T21:11:47.193Z,8.57
2022-12-24T21:14:15.115Z,9.85
2022-12-24T21:16:42.333Z,12.73
2022-12-24T21:19:12.012Z,9.52
2022-12-24T21:21:39.075Z,10.35
2022-12-24T21:24:06.394Z,12.32
2022-12-24T21:26:35.924Z,10.57
2022-12-24T21:29:04.815Z,9.15
2022-12-24T21:31:32.129Z,11.65
2022-12-24T21:33:59.149Z,9.75
2022-12-24T21:36:27.054Z,10.77
2022-12-24T21:38:55.016Z,13.23
2022-12-24T21:41:26.006Z,12.20
2022-12-24T21:43:53.415Z,12.20
2022-12-24T21:46:25.007Z,12.65
2022-12-24T21:49:15.172Z,10.55
2022-12-24T21:51:46.906Z,9.98
2022-12-24T21:54:31.627Z,9.63
2022-12-24T21:59:52.708Z,9.93
2022-12-24T22:02:22.871Z,9.80
2022-12-24T22:04:58.072Z,14.00
2022-12-24T22:07:45.908Z,9.38
2022-12-24T22:10:32.717Z,9.07
2022-12-24T22:13:00.485Z,8.85
2022-12-24T22:15:27.736Z,11.07
2022-12-24T22:17:54.577Z,9.05
2022-12-24T22:20:21.627Z,8.13
2022-12-24T22:22:49.233Z,10.27
2022-12-24T22:25:16.706Z,10.45
2022-12-24T22:27:44.000Z,10.73
2022-12-24T22:30:11.974Z,8.75
2022-12-24T22:32:38.977Z,10.48
2022-12-24T22:35:06.343Z,10.32
2022-12-24T22:37:34.329Z,8.93
2022-12-24T22:40:01.322Z,8.70
2022-12-24T22:42:30.321Z,10.40
2022-12-24T22:44:57.158Z,9.85
2022-12-24T22:47:24.115Z,11.95
2022-12-24T22:49:51.059Z,9.65
2022-12-24T22:52:17.972Z,9.90
2022-12-24T22:54:44.953Z,11.05
2022-12-24T22:57:12.001Z,11.32
2022-12-24T22:59:40.024Z,11.02
2022-12-24T23:02:07.684Z,11.20
2022-12-24T23:04:38.918Z,10.68
2022-12-24T23:07:08.612Z,11.43
2022-12-24T23:09:35.778Z,9.15
2022-12-24T23:12:03.300Z,8.60
2022-12-24T23:14:49.033Z,11.32
2022-12-24T23:17:16.071Z,12.43
2022-12-24T23:19:43.438Z,12.75
2022-12-24T23:22:12.886Z,12.23
2022-12-24T23:24:41.954Z,10.65
2022-12-24T23:27:09.097Z,9.23
2022-12-24T23:29:36.429Z,11.68
2022-12-24T23:32:03.628Z,13.32
2022-12-24T23:34:30.627Z,9.98
2022-12-24T23:36:57.648Z,11.68
2022-12-24T23:39:24.762Z,11.40
2022-12-24T23:41:51.678Z,10.23
2022-12-24T23:44:18.729Z,11.50
2022-12-24T23:46:45.753Z,10.13
2022-12-24T23:49:15.893Z,11.65
2022-12-24T23:51:42.786Z,11.15
2022-12-24T23:54:10.044Z,14.93
2022-12-24T23:56:37.004Z,10.63
2022-12-24T23:59:04.331Z,10.52
